Main page
METAR-TAF:

METAR-TAF

Airports :

Cherbourg – Maupertus Airport

Cherbourg, France

latitude: 49-39N, longitude: 001-28W, elevation: 138 m

Current weather observation

The report was made 18 minutes ago, at 06:30 UTC
Wind 17 kt from the Southwest
Temperature 17°C
Humidity 88%
Pressure 1016 hPa
Visibility 10 km or more
Broken clouds at a height of 1200 ft
Overcast at a height of 2000 ft

METAR: LFRC 190630Z AUTO 22017KT 9999 BKN012 OVC020 17/15 Q1016 BECMG 21015G28KT NSC

Time: 08:48 (06:48 UTC)

Forecast

The report was made 1 hour and 48 minutes ago, at 05:00 UTC
Forecast valid from 19 at 06 UTC to 19 at 15 UTC
Wind 15 kt from the South/Southwest with gusts up to 28 kt
Visibility 10 km or more
Overcast at a height of 500 ft
Becoming
from 19 at 06 UTC to 19 at 08 UTC
Broken clouds at a height of 1500 ft
Becoming
from 19 at 08 UTC to 19 at 11 UTC
Visibility 10 km or more
no clouds below 1500 m and no cumulonimbus

TAF: LFRC 190500Z 1906/1915 21015G28KT 9999 OVC005 BECMG 1906/1908 BKN015 BECMG 1908/1911 CAVOK

Weather observations and forecasts of more than 4000 airports (METAR and TAF reports).

The available stations are represented by yellow and red dots on the map.

Hover mouse over dot to see the name of the station.

Then click to see weather observations and forecasts.

To change the map : click on the green buttons with a black cross to zoom in, on the green button with a dash to zoom out, or on the green arrows for adjacent maps.


METAR-TAF: